Forside
METAR-TAF:

METAR-TAF

Lufthavne :

Yellowstone Airport

West Yellowstone, Montana, USA

Breddekreds: 44-39N, længdekreds: 111-06W, højde: 2031 m

Aktuelle vejr

Denne rapport blev lavet for 12 minutter siden, kl. 01:35 UTC
Vind 4 kt fra sydsydvest
Temperatur -10°C
Fugtighed 85%
Tryk 1014 hPa
Sigt: 3.2 km
Overskyet i en højde af 300 ft
let sne

METAR: KWYS 240135Z AUTO 20004KT 2SM -SN OVC003 M10/M12 A2995 RMK AO2

Tid: 18:47 (01:47 UTC)


TAF: fraværende

Vejrobservationer og prognoser fra mere end 4000 lufthavne (METAR og TAF).

De gule og røde prikker repræsenterer de meteorologiske stationer.

Flyt musen over at se navnet på stationen.

Så klik over at se vejr observationer og prognoser.

At skifte det kort: Klik på de grønne knapper med et sort kors for at zoome ind; på den grønne knap med en bindestreg for at zoome ud; eller på de grønne pile for tilstødende kort.


METAR-TAF: